createdAt,value
2019-03-13T00:01:42.295Z,3.42
2019-03-13T00:04:25.380Z,4.08
2019-03-13T00:07:01.890Z,3.52
2019-03-13T00:09:42.611Z,7.22
2019-03-13T00:12:16.787Z,5.10
2019-03-13T00:14:59.645Z,5.33
2019-03-13T00:17:37.804Z,7.22
2019-03-13T00:20:14.785Z,3.50
2019-03-13T00:22:48.432Z,4.90
2019-03-13T00:25:26.384Z,4.22
2019-03-13T00:28:04.649Z,2.58
2019-03-13T00:30:43.691Z,1.77
2019-03-13T00:33:13.641Z,4.28
2019-03-13T00:35:50.361Z,4.45
2019-03-13T00:38:26.175Z,3.17
2019-03-13T00:41:02.133Z,3.70
2019-03-13T00:43:35.813Z,2.67
2019-03-13T00:46:22.225Z,1.95
2019-03-13T00:48:54.721Z,3.65
2019-03-13T00:51:36.961Z,2.83
2019-03-13T00:54:08.069Z,2.52
2019-03-13T00:56:39.595Z,1.55
2019-03-13T00:59:08.827Z,0.90
2019-03-13T01:01:56.161Z,0.62
2019-03-13T01:04:27.030Z,1.85
2019-03-13T01:06:58.002Z,2.02
2019-03-13T01:09:27.232Z,2.60
2019-03-13T01:11:56.464Z,3.20
2019-03-13T01:14:25.970Z,4.67
2019-03-13T01:16:55.470Z,4.45
2019-03-13T01:19:24.643Z,4.05
2019-03-13T01:21:53.870Z,4.25
2019-03-13T01:24:23.280Z,4.47
2019-03-13T01:26:52.453Z,2.55
2019-03-13T01:29:21.665Z,2.85
2019-03-13T01:32:04.546Z,4.62
2019-03-13T01:34:35.343Z,5.35
2019-03-13T01:37:04.507Z,7.30
2019-03-13T01:39:34.057Z,7.42
2019-03-13T01:42:03.294Z,4.80
2019-03-13T01:44:32.445Z,6.60
2019-03-13T01:47:03.073Z,4.92
2019-03-13T01:49:33.193Z,4.60
2019-03-13T01:52:02.366Z,7.20
2019-03-13T01:54:31.893Z,9.03
2019-03-13T01:57:01.060Z,6.65
2019-03-13T01:59:30.242Z,6.92
2019-03-13T02:01:59.434Z,7.22
2019-03-13T02:04:28.669Z,10.32
2019-03-13T02:06:57.903Z,8.85
2019-03-13T02:09:27.073Z,7.78
2019-03-13T02:11:56.222Z,6.33
2019-03-13T02:14:25.459Z,6.42
2019-03-13T02:16:54.991Z,4.17
2019-03-13T02:19:24.174Z,6.28
2019-03-13T02:21:53.328Z,8.43
2019-03-13T02:24:22.743Z,8.78
2019-03-13T02:26:52.194Z,6.53
2019-03-13T02:29:21.349Z,6.78
2019-03-13T02:31:50.505Z,5.80
2019-03-13T02:34:20.005Z,4.28
2019-03-13T02:36:49.231Z,8.08
2019-03-13T02:39:18.483Z,6.33
2019-03-13T02:41:47.708Z,6.62
2019-03-13T02:44:16.880Z,6.95
2019-03-13T02:46:46.041Z,9.20
2019-03-13T02:49:15.615Z,8.50
2019-03-13T02:51:44.751Z,6.92
2019-03-13T02:54:13.979Z,5.60
2019-03-13T02:56:43.200Z,7.95
2019-03-13T02:59:12.702Z,5.08
2019-03-13T03:01:43.524Z,5.08
2019-03-13T03:04:12.759Z,4.17
2019-03-13T03:06:41.995Z,6.55
2019-03-13T03:09:11.463Z,4.10
2019-03-13T03:11:42.316Z,5.80
2019-03-13T03:14:11.531Z,12.40
2019-03-13T03:16:40.991Z,8.73
2019-03-13T03:19:10.314Z,9.63
2019-03-13T03:21:39.465Z,8.80
2019-03-13T03:24:08.622Z,6.72
2019-03-13T03:26:37.787Z,7.28
2019-03-13T03:29:07.018Z,7.00
2019-03-13T03:31:36.286Z,8.65
2019-03-13T03:34:05.827Z,6.72
2019-03-13T03:36:34.984Z,6.03
2019-03-13T03:39:05.347Z,8.55
2019-03-13T03:41:34.558Z,7.53
2019-03-13T03:44:03.725Z,8.70
2019-03-13T03:46:33.137Z,9.23
2019-03-13T03:49:02.649Z,16.97
2019-03-13T03:51:31.820Z,11.25
2019-03-13T03:54:00.979Z,6.67
2019-03-13T03:56:30.121Z,7.10
2019-03-13T03:58:59.284Z,10.85
2019-03-13T04:01:28.453Z,5.65
2019-03-13T04:03:57.602Z,5.90
2019-03-13T04:06:27.181Z,7.03
2019-03-13T04:08:57.729Z,7.05
2019-03-13T04:11:26.891Z,9.68
2019-03-13T04:13:56.359Z,8.00
2019-03-13T04:16:25.527Z,7.90
2019-03-13T04:18:55.011Z,8.73
2019-03-13T04:21:24.160Z,7.97
2019-03-13T04:23:53.353Z,8.90
2019-03-13T04:26:22.513Z,7.25
2019-03-13T04:28:51.776Z,11.45
2019-03-13T04:31:20.977Z,4.78
2019-03-13T04:33:50.135Z,7.37
2019-03-13T04:36:19.280Z,10.60
2019-03-13T04:38:48.465Z,8.35
2019-03-13T04:41:17.615Z,10.00
2019-03-13T04:43:46.782Z,13.72
2019-03-13T04:46:15.937Z,9.50
2019-03-13T04:48:45.086Z,10.72
2019-03-13T04:51:14.646Z,8.55
2019-03-13T04:53:43.805Z,8.33
2019-03-13T04:56:13.257Z,13.53
2019-03-13T04:58:43.560Z,8.35
2019-03-13T05:01:13.030Z,12.45
2019-03-13T05:03:42.494Z,7.33
2019-03-13T05:06:14.906Z,12.37
2019-03-13T05:08:45.443Z,13.18
2019-03-13T05:11:14.946Z,10.68
2019-03-13T05:13:44.139Z,17.23
2019-03-13T05:16:13.350Z,9.38
2019-03-13T05:18:42.801Z,9.65
2019-03-13T05:21:11.972Z,12.33
2019-03-13T05:23:41.449Z,11.73
2019-03-13T05:26:11.010Z,9.80
2019-03-13T05:28:40.628Z,10.58
2019-03-13T05:31:10.166Z,9.50
2019-03-13T05:33:39.580Z,11.83
2019-03-13T05:36:08.803Z,9.90
2019-03-13T05:38:38.044Z,7.42
2019-03-13T05:41:07.229Z,12.82
2019-03-13T05:43:36.540Z,7.65
2019-03-13T05:46:05.687Z,9.80
2019-03-13T05:48:34.859Z,12.60
2019-03-13T05:51:04.077Z,9.20
2019-03-13T05:53:33.266Z,7.72
2019-03-13T05:56:02.441Z,11.65
2019-03-13T05:58:32.046Z,10.78
2019-03-13T06:01:01.642Z,15.65
2019-03-13T06:03:30.867Z,12.53
2019-03-13T06:06:00.447Z,9.23
2019-03-13T06:08:30.058Z,12.63
2019-03-13T06:10:59.549Z,9.08
2019-03-13T06:13:28.746Z,11.78
2019-03-13T06:15:59.212Z,11.38
2019-03-13T06:18:28.468Z,12.13
2019-03-13T06:20:57.666Z,8.85
2019-03-13T06:23:26.850Z,14.10
2019-03-13T06:25:56.031Z,15.13
2019-03-13T06:28:25.461Z,12.40
2019-03-13T06:30:54.680Z,12.65
2019-03-13T06:33:24.596Z,8.58
2019-03-13T06:35:53.755Z,13.88
2019-03-13T06:38:22.931Z,13.72
2019-03-13T06:40:52.188Z,19.70
2019-03-13T06:43:21.708Z,13.40
2019-03-13T06:45:50.850Z,10.38
2019-03-13T06:48:20.024Z,10.90
2019-03-13T06:50:49.520Z,12.03
2019-03-13T06:53:18.678Z,9.73
2019-03-13T06:55:48.153Z,10.90
2019-03-13T06:58:19.037Z,11.75
2019-03-13T07:00:58.939Z,12.33
2019-03-13T07:03:32.471Z,13.78
2019-03-13T07:06:09.285Z,11.15
2019-03-13T07:08:41.051Z,13.98
2019-03-13T07:11:14.809Z,20.27
2019-03-13T07:13:48.449Z,21.42
2019-03-13T07:16:19.294Z,10.25
2019-03-13T07:19:06.500Z,15.95
2019-03-13T07:21:49.237Z,15.05
2019-03-13T07:24:23.327Z,14.13
2019-03-13T07:26:56.865Z,13.55
2019-03-13T07:29:33.571Z,14.53
2019-03-13T07:32:10.398Z,11.88
2019-03-13T07:34:49.955Z,13.58
2019-03-13T07:37:23.481Z,17.77
2019-03-13T07:39:54.323Z,11.85
2019-03-13T07:42:40.415Z,19.17
2019-03-13T07:45:23.970Z,18.10
2019-03-13T07:47:54.796Z,17.85
2019-03-13T07:50:41.992Z,14.35
2019-03-13T07:53:13.089Z,15.32
2019-03-13T07:55:43.915Z,14.45
2019-03-13T07:58:14.792Z,16.52
2019-03-13T08:00:51.356Z,17.73
2019-03-13T08:03:39.146Z,19.80
2019-03-13T08:06:21.977Z,18.87
2019-03-13T08:09:09.388Z,17.15
2019-03-13T08:11:44.420Z,17.77
2019-03-13T08:14:30.398Z,45.28
2019-03-13T08:17:01.341Z,16.90
2019-03-13T08:19:32.350Z,17.10
2019-03-13T08:22:15.491Z,13.78
2019-03-13T08:24:49.081Z,11.30
2019-03-13T08:27:25.854Z,15.23
2019-03-13T08:30:14.761Z,18.85
2019-03-13T08:32:45.949Z,15.88
2019-03-13T08:35:16.835Z,14.93
2019-03-13T08:38:02.988Z,15.35
2019-03-13T08:40:33.811Z,15.13
2019-03-13T08:43:04.608Z,21.00
2019-03-13T08:45:38.408Z,16.48
2019-03-13T08:48:09.198Z,21.37
2019-03-13T08:50:51.992Z,15.80
2019-03-13T08:53:31.965Z,11.70
2019-03-13T08:56:05.515Z,16.30
2019-03-13T08:58:43.047Z,18.62
2019-03-13T09:01:13.843Z,13.25
2019-03-13T09:03:50.645Z,18.32
2019-03-13T09:06:31.564Z,14.70
2019-03-13T09:09:02.421Z,17.30
2019-03-13T09:11:37.341Z,14.70
2019-03-13T09:14:16.925Z,13.78
2019-03-13T09:17:04.505Z,15.65
2019-03-13T09:19:45.357Z,12.60
2019-03-13T09:22:17.239Z,17.27
2019-03-13T09:25:10.814Z,16.27
2019-03-13T09:27:29.675Z,13.00
2019-03-13T09:30:00.545Z,15.48
2019-03-13T09:32:34.394Z,21.75
2019-03-13T09:35:18.312Z,13.40
2019-03-13T09:37:49.138Z,20.35
2019-03-13T09:40:19.999Z,16.27
2019-03-13T09:42:53.833Z,15.93
2019-03-13T09:45:27.340Z,16.90
2019-03-13T09:48:01.555Z,11.45
2019-03-13T09:50:36.258Z,14.13
2019-03-13T09:53:07.446Z,19.48
2019-03-13T09:55:54.543Z,15.90
2019-03-13T09:58:41.537Z,13.50
2019-03-13T10:01:12.328Z,12.40
2019-03-13T10:04:02.750Z,26.23
2019-03-13T10:06:39.753Z,17.42
2019-03-13T10:09:13.499Z,12.98
2019-03-13T10:11:47.236Z,13.38
2019-03-13T10:14:18.058Z,16.17
2019-03-13T10:17:10.884Z,16.48
2019-03-13T10:19:45.511Z,15.03
2019-03-13T10:22:34.653Z,15.65
2019-03-13T10:25:09.674Z,15.45
2019-03-13T10:27:40.841Z,10.35
2019-03-13T10:30:25.534Z,16.87
2019-03-13T10:32:56.692Z,11.03
2019-03-13T10:35:45.579Z,16.15
2019-03-13T10:38:22.362Z,8.65
2019-03-13T10:40:53.536Z,16.48
2019-03-13T10:43:31.230Z,19.87
2019-03-13T10:46:05.187Z,19.42
2019-03-13T10:48:36.062Z,13.55
2019-03-13T10:51:19.430Z,13.15
2019-03-13T10:53:50.468Z,8.85
2019-03-13T10:56:24.179Z,14.95
2019-03-13T10:58:55.003Z,10.85
2019-03-13T11:01:34.845Z,12.23
2019-03-13T11:04:21.903Z,12.70
2019-03-13T11:06:55.749Z,11.40
2019-03-13T11:09:32.731Z,13.55
2019-03-13T11:12:03.546Z,11.00
2019-03-13T11:14:34.406Z,12.25
2019-03-13T11:17:20.547Z,14.55
2019-03-13T11:19:57.083Z,13.40
2019-03-13T11:22:27.873Z,18.80
2019-03-13T11:25:18.247Z,14.55
2019-03-13T11:27:52.704Z,19.12
2019-03-13T11:30:33.118Z,15.95
2019-03-13T11:33:20.208Z,14.90
2019-03-13T11:35:53.964Z,14.10
2019-03-13T11:38:41.049Z,11.68
2019-03-13T11:41:28.178Z,18.65
2019-03-13T11:43:58.972Z,10.53
2019-03-13T11:46:30.111Z,8.70
2019-03-13T11:49:00.929Z,11.57
2019-03-13T11:51:37.875Z,17.42
2019-03-13T11:54:11.726Z,9.70
2019-03-13T11:56:42.564Z,11.00
2019-03-13T11:59:29.665Z,9.23
2019-03-13T12:02:00.536Z,11.45
2019-03-13T12:04:47.656Z,12.28
2019-03-13T12:07:27.334Z,14.98
2019-03-13T12:09:58.155Z,13.15
2019-03-13T12:12:29.330Z,10.13
2019-03-13T12:15:16.547Z,17.73
2019-03-13T12:17:50.071Z,10.03
2019-03-13T12:20:32.700Z,9.25
2019-03-13T12:23:19.997Z,9.93
2019-03-13T12:25:56.600Z,9.90
2019-03-13T12:28:43.986Z,8.28
2019-03-13T12:31:17.571Z,11.03
2019-03-13T12:33:57.416Z,10.80
2019-03-13T12:36:31.203Z,14.15
2019-03-13T12:39:18.716Z,8.63
2019-03-13T12:41:55.106Z,6.25
2019-03-13T12:44:25.919Z,8.83
2019-03-13T12:47:05.757Z,10.50
2019-03-13T12:49:36.634Z,11.20
2019-03-13T12:52:07.429Z,6.87
2019-03-13T12:54:38.493Z,19.52
2019-03-13T12:57:09.301Z,19.05
2019-03-13T12:59:40.151Z,10.95
2019-03-13T13:02:26.208Z,8.45
2019-03-13T13:05:02.976Z,9.43
2019-03-13T13:07:36.523Z,7.20
2019-03-13T13:10:24.312Z,11.38
2019-03-13T13:12:58.058Z,10.00
2019-03-13T13:15:31.821Z,7.22
2019-03-13T13:18:08.565Z,7.90
2019-03-13T13:20:37.830Z,8.80
2019-03-13T13:23:06.993Z,9.50
2019-03-13T13:25:36.149Z,7.53
2019-03-13T13:28:05.318Z,7.47
2019-03-13T13:30:34.483Z,7.72
2019-03-13T13:33:03.639Z,8.75
2019-03-13T13:35:32.869Z,7.12
2019-03-13T13:38:02.054Z,26.02
2019-03-13T13:40:31.231Z,9.05
2019-03-13T13:43:00.930Z,5.87
2019-03-13T13:45:33.543Z,8.90
2019-03-13T13:48:02.891Z,6.17
2019-03-13T13:50:32.427Z,5.85
2019-03-13T13:53:01.628Z,8.28
2019-03-13T13:55:30.788Z,7.75
2019-03-13T13:57:59.967Z,7.72
2019-03-13T14:00:29.126Z,6.87
2019-03-13T14:02:58.258Z,8.05
2019-03-13T14:05:27.692Z,12.20
2019-03-13T14:07:56.850Z,8.73
2019-03-13T14:10:26.047Z,5.67
2019-03-13T14:12:55.259Z,7.03
2019-03-13T14:15:24.415Z,8.68
2019-03-13T14:17:53.559Z,7.60
2019-03-13T14:20:22.971Z,6.60
2019-03-13T14:22:52.143Z,6.97
2019-03-13T14:25:21.578Z,11.25
2019-03-13T14:27:50.727Z,5.80
2019-03-13T14:30:22.177Z,7.08
2019-03-13T14:32:51.651Z,6.97
2019-03-13T14:35:20.802Z,8.33
2019-03-13T14:37:50.191Z,6.58
2019-03-13T14:40:19.988Z,6.28
2019-03-13T14:42:49.132Z,5.62
2019-03-13T14:45:19.279Z,6.05
2019-03-13T14:47:48.420Z,5.45
2019-03-13T14:50:21.690Z,10.55
2019-03-13T14:53:30.040Z,5.47
2019-03-13T14:56:06.966Z,6.97
2019-03-13T14:58:41.304Z,6.63
2019-03-13T15:04:05.139Z,9.25
2019-03-13T15:06:34.299Z,4.87
2019-03-13T15:09:08.481Z,5.78
2019-03-13T15:11:43.340Z,4.45
2019-03-13T15:14:19.197Z,3.87
2019-03-13T15:16:55.141Z,4.67
2019-03-13T15:19:39.606Z,5.55
2019-03-13T15:22:08.902Z,4.90
2019-03-13T15:24:38.061Z,4.80
2019-03-13T15:27:07.330Z,5.83
2019-03-13T15:29:36.561Z,3.25
2019-03-13T15:32:05.807Z,6.67
2019-03-13T15:34:34.977Z,3.52
2019-03-13T15:37:04.151Z,4.80
2019-03-13T15:39:33.695Z,5.97
2019-03-13T15:42:03.146Z,5.97
2019-03-13T15:44:32.478Z,8.38
2019-03-13T15:47:01.618Z,5.47
2019-03-13T15:49:31.099Z,4.67
2019-03-13T15:52:01.420Z,5.30
2019-03-13T15:54:30.940Z,3.65
2019-03-13T15:57:00.155Z,4.72
2019-03-13T15:59:29.652Z,5.97
2019-03-13T16:01:58.818Z,4.55
2019-03-13T16:04:28.123Z,3.92
2019-03-13T16:06:57.350Z,3.20
2019-03-13T16:09:26.514Z,3.85
2019-03-13T16:11:55.676Z,4.45
2019-03-13T16:14:25.265Z,5.10
2019-03-13T16:16:54.427Z,2.65
2019-03-13T16:19:23.968Z,3.00
2019-03-13T16:21:53.206Z,3.05
2019-03-13T16:24:22.371Z,3.42
2019-03-13T16:26:51.516Z,2.60
2019-03-13T16:29:20.660Z,4.03
2019-03-13T16:31:50.180Z,3.55
2019-03-13T16:34:19.655Z,4.78
2019-03-13T16:36:48.825Z,2.42
2019-03-13T16:39:18.039Z,2.70
2019-03-13T16:41:47.205Z,2.65
2019-03-13T16:44:16.934Z,2.50
2019-03-13T16:46:46.097Z,4.72
2019-03-13T16:49:15.331Z,2.17
2019-03-13T16:51:44.490Z,5.47
2019-03-13T16:54:13.627Z,3.52
2019-03-13T16:56:42.794Z,4.40
2019-03-13T16:59:11.933Z,3.75
2019-03-13T17:01:41.079Z,3.27
2019-03-13T17:04:10.231Z,3.40
2019-03-13T17:06:39.372Z,3.83
2019-03-13T17:09:08.522Z,5.22
2019-03-13T17:11:38.347Z,6.50
2019-03-13T17:14:07.506Z,3.90
2019-03-13T17:16:36.958Z,8.23
2019-03-13T17:19:06.101Z,2.45
2019-03-13T17:21:35.356Z,4.67
2019-03-13T17:24:04.864Z,5.60
2019-03-13T17:26:34.026Z,6.30
2019-03-13T17:29:03.178Z,3.40
2019-03-13T17:31:32.334Z,3.98
2019-03-13T17:34:01.483Z,3.65
2019-03-13T17:36:30.710Z,6.58
2019-03-13T17:39:00.287Z,3.45
2019-03-13T17:41:31.590Z,8.18
2019-03-13T17:44:00.750Z,6.65
2019-03-13T17:46:30.333Z,5.92
2019-03-13T17:48:59.544Z,6.80
2019-03-13T17:51:28.782Z,5.83
2019-03-13T17:53:58.047Z,8.95
2019-03-13T17:56:27.329Z,5.37
2019-03-13T17:58:56.509Z,6.78
2019-03-13T18:01:25.746Z,4.70
2019-03-13T18:03:55.079Z,7.00
2019-03-13T18:06:25.225Z,5.58
2019-03-13T18:08:54.750Z,5.92
2019-03-13T18:11:24.387Z,8.80
2019-03-13T18:13:53.886Z,6.60
2019-03-13T18:16:23.103Z,7.83
2019-03-13T18:19:04.836Z,8.68
2019-03-13T18:21:34.006Z,7.15
2019-03-13T18:24:03.181Z,7.72
2019-03-13T18:26:32.676Z,6.72
2019-03-13T18:29:01.974Z,9.60
2019-03-13T18:31:31.155Z,6.40
2019-03-13T18:34:00.362Z,6.20
2019-03-13T18:36:29.579Z,7.30
2019-03-13T18:38:59.072Z,9.48
2019-03-13T18:41:28.308Z,4.85
2019-03-13T18:43:57.887Z,5.80
2019-03-13T18:46:27.483Z,2.58
2019-03-13T18:48:57.010Z,7.10
2019-03-13T18:51:26.249Z,8.85
2019-03-13T18:53:55.485Z,5.87
2019-03-13T18:56:24.666Z,10.55
2019-03-13T18:58:53.805Z,11.97
2019-03-13T19:01:22.969Z,8.30
2019-03-13T19:03:52.133Z,7.20
2019-03-13T19:06:21.585Z,8.48
2019-03-13T19:08:51.066Z,10.85
2019-03-13T19:11:20.377Z,6.58
2019-03-13T19:13:49.643Z,6.28
2019-03-13T19:16:18.819Z,7.72
2019-03-13T19:18:49.435Z,11.40
2019-03-13T19:21:19.244Z,9.28
2019-03-13T19:23:48.406Z,11.73
2019-03-13T19:26:17.588Z,7.53
2019-03-13T19:28:46.739Z,7.12
2019-03-13T19:31:16.009Z,10.23
2019-03-13T19:33:45.592Z,12.07
2019-03-13T19:36:15.051Z,10.03
2019-03-13T19:38:45.356Z,9.78
2019-03-13T19:41:14.509Z,10.25
2019-03-13T19:43:43.703Z,8.53
2019-03-13T19:46:12.918Z,9.38
2019-03-13T19:48:42.088Z,9.28
2019-03-13T19:51:11.318Z,9.00
2019-03-13T19:53:41.983Z,10.23
2019-03-13T19:56:11.554Z,7.85
2019-03-13T19:58:40.772Z,7.72
2019-03-13T20:01:10.324Z,8.68
2019-03-13T20:03:39.508Z,12.03
2019-03-13T20:06:09.016Z,7.45
2019-03-13T20:08:38.175Z,6.30
2019-03-13T20:11:07.333Z,8.33
2019-03-13T20:13:36.516Z,7.08
2019-03-13T20:16:05.669Z,9.20
2019-03-13T20:18:35.222Z,5.95
2019-03-13T20:21:04.362Z,4.47
2019-03-13T20:23:33.561Z,5.30
2019-03-13T20:26:02.698Z,2.92
2019-03-13T20:28:31.921Z,3.77
2019-03-13T20:31:01.096Z,9.05
2019-03-13T20:33:30.315Z,7.03
2019-03-13T20:35:59.474Z,5.25
2019-03-13T20:38:28.956Z,4.37
2019-03-13T20:40:58.193Z,6.03
2019-03-13T20:43:27.733Z,4.60
2019-03-13T20:45:56.995Z,7.00
2019-03-13T20:48:26.212Z,8.25
2019-03-13T20:50:55.466Z,5.85
2019-03-13T20:53:24.639Z,10.13
2019-03-13T20:55:53.806Z,4.90
2019-03-13T20:58:22.976Z,8.05
2019-03-13T21:00:52.204Z,6.30
2019-03-13T21:03:22.534Z,8.50
2019-03-13T21:05:51.718Z,11.28
2019-03-13T21:08:21.066Z,10.35
2019-03-13T21:10:50.241Z,12.25
2019-03-13T21:13:19.393Z,9.60
2019-03-13T21:15:48.846Z,17.82
2019-03-13T21:18:17.995Z,15.00
2019-03-13T21:20:47.205Z,13.70
2019-03-13T21:23:17.450Z,17.12
2019-03-13T21:25:46.688Z,14.05
2019-03-13T21:28:15.975Z,12.78
2019-03-13T21:30:45.485Z,13.45
2019-03-13T21:33:14.691Z,16.73
2019-03-13T21:35:44.703Z,25.25
2019-03-13T21:38:14.237Z,16.95
2019-03-13T21:40:43.435Z,18.48
2019-03-13T21:43:12.583Z,17.27
2019-03-13T21:45:41.851Z,15.15
2019-03-13T21:48:11.114Z,15.75
2019-03-13T21:50:40.708Z,14.78
2019-03-13T21:53:09.961Z,22.65
2019-03-13T21:55:39.175Z,17.95
2019-03-13T21:58:08.371Z,19.25
2019-03-13T22:00:37.518Z,16.37
2019-03-13T22:03:06.687Z,14.85
2019-03-13T22:05:35.976Z,13.58
2019-03-13T22:08:05.198Z,9.78
2019-03-13T22:10:34.359Z,15.88
2019-03-13T22:13:03.529Z,12.47
2019-03-13T22:15:33.115Z,15.48
2019-03-13T22:18:02.447Z,17.50
2019-03-13T22:20:32.148Z,14.40
2019-03-13T22:23:01.619Z,22.50
2019-03-13T22:25:30.936Z,21.05
2019-03-13T22:28:00.119Z,18.15
2019-03-13T22:30:29.336Z,18.67
2019-03-13T22:32:59.482Z,15.05
2019-03-13T22:35:28.727Z,9.45
2019-03-13T22:37:57.999Z,16.93
2019-03-13T22:40:27.242Z,10.98
2019-03-13T22:42:56.477Z,13.32
2019-03-13T22:45:25.638Z,16.85
2019-03-13T22:47:54.969Z,15.55
2019-03-13T22:50:24.783Z,16.82
2019-03-13T22:52:54.007Z,19.87
2019-03-13T22:55:24.253Z,16.55
2019-03-13T22:57:53.490Z,17.23
2019-03-13T23:00:35.877Z,14.47
2019-03-13T23:03:06.664Z,9.18
2019-03-13T23:05:36.201Z,16.00
2019-03-13T23:08:05.519Z,11.65
2019-03-13T23:10:35.060Z,8.08
2019-03-13T23:13:04.210Z,12.37
2019-03-13T23:15:33.625Z,13.55
2019-03-13T23:18:02.783Z,14.07
2019-03-13T23:20:32.234Z,7.95
2019-03-13T23:23:01.379Z,9.58
2019-03-13T23:25:30.819Z,12.40
2019-03-13T23:27:59.984Z,14.35
2019-03-13T23:30:29.293Z,14.33
2019-03-13T23:32:58.521Z,12.68
2019-03-13T23:35:27.688Z,19.67
2019-03-13T23:37:57.112Z,18.77
2019-03-13T23:40:26.291Z,14.53
2019-03-13T23:42:55.512Z,14.85
2019-03-13T23:45:24.684Z,17.48
2019-03-13T23:47:53.855Z,30.23
2019-03-13T23:50:23.082Z,16.73
2019-03-13T23:52:52.307Z,21.75
2019-03-13T23:55:21.745Z,24.50
2019-03-13T23:57:52.104Z,24.15
